sensor_id;sensor_type;location;lat;lon;timestamp;P1;durP1;ratioP1;P2;durP2;ratioP2
53925;SDS011;39836;52.754;6.866;2023-03-23T00:02:02;11.90;;;8.75;;
53925;SDS011;39836;52.754;6.866;2023-03-23T00:04:28;14.43;;;9.23;;
53925;SDS011;39836;52.754;6.866;2023-03-23T00:06:54;17.42;;;8.27;;
53925;SDS011;39836;52.754;6.866;2023-03-23T00:09:20;12.63;;;8.43;;
53925;SDS011;39836;52.754;6.866;2023-03-23T00:11:48;16.40;;;9.95;;
53925;SDS011;39836;52.754;6.866;2023-03-23T00:14:15;17.45;;;10.27;;
53925;SDS011;39836;52.754;6.866;2023-03-23T00:16:42;14.43;;;9.70;;
53925;SDS011;39836;52.754;6.866;2023-03-23T00:19:09;16.45;;;9.85;;
53925;SDS011;39836;52.754;6.866;2023-03-23T00:21:38;14.13;;;10.02;;
53925;SDS011;39836;52.754;6.866;2023-03-23T00:24:13;12.57;;;8.50;;
53925;SDS011;39836;52.754;6.866;2023-03-23T00:26:41;16.17;;;10.70;;
53925;SDS011;39836;52.754;6.866;2023-03-23T00:29:19;14.77;;;8.57;;
53925;SDS011;39836;52.754;6.866;2023-03-23T00:31:47;11.05;;;7.80;;
53925;SDS011;39836;52.754;6.866;2023-03-23T00:34:18;16.20;;;7.93;;
53925;SDS011;39836;52.754;6.866;2023-03-23T00:36:46;15.20;;;8.73;;
53925;SDS011;39836;52.754;6.866;2023-03-23T00:39:16;16.08;;;8.02;;
53925;SDS011;39836;52.754;6.866;2023-03-23T00:41:43;13.57;;;7.75;;
53925;SDS011;39836;52.754;6.866;2023-03-23T00:44:09;11.52;;;7.75;;
53925;SDS011;39836;52.754;6.866;2023-03-23T00:46:41;13.18;;;7.75;;
53925;SDS011;39836;52.754;6.866;2023-03-23T00:49:14;13.65;;;7.97;;
53925;SDS011;39836;52.754;6.866;2023-03-23T00:51:42;13.70;;;7.70;;
53925;SDS011;39836;52.754;6.866;2023-03-23T00:54:08;14.60;;;8.68;;
53925;SDS011;39836;52.754;6.866;2023-03-23T00:56:35;9.65;;;6.55;;
53925;SDS011;39836;52.754;6.866;2023-03-23T00:59:02;13.55;;;7.30;;
53925;SDS011;39836;52.754;6.866;2023-03-23T01:01:28;12.75;;;7.28;;
53925;SDS011;39836;52.754;6.866;2023-03-23T01:03:54;11.30;;;6.93;;
53925;SDS011;39836;52.754;6.866;2023-03-23T01:06:26;11.45;;;6.10;;
53925;SDS011;39836;52.754;6.866;2023-03-23T01:08:53;12.07;;;6.15;;
53925;SDS011;39836;52.754;6.866;2023-03-23T01:11:19;8.43;;;5.50;;
53925;SDS011;39836;52.754;6.866;2023-03-23T01:13:45;10.88;;;5.50;;
53925;SDS011;39836;52.754;6.866;2023-03-23T01:16:11;13.73;;;5.90;;
53925;SDS011;39836;52.754;6.866;2023-03-23T01:18:38;11.57;;;5.22;;
53925;SDS011;39836;52.754;6.866;2023-03-23T01:21:05;13.57;;;7.07;;
53925;SDS011;39836;52.754;6.866;2023-03-23T01:23:32;11.38;;;6.78;;
53925;SDS011;39836;52.754;6.866;2023-03-23T01:26:03;11.05;;;5.72;;
53925;SDS011;39836;52.754;6.866;2023-03-23T01:28:30;10.13;;;6.40;;
53925;SDS011;39836;52.754;6.866;2023-03-23T01:31:00;16.73;;;7.53;;
53925;SDS011;39836;52.754;6.866;2023-03-23T01:33:28;10.25;;;6.15;;
53925;SDS011;39836;52.754;6.866;2023-03-23T01:35:54;11.60;;;6.80;;
53925;SDS011;39836;52.754;6.866;2023-03-23T01:38:20;10.52;;;6.85;;
53925;SDS011;39836;52.754;6.866;2023-03-23T01:40:46;13.52;;;6.38;;
53925;SDS011;39836;52.754;6.866;2023-03-23T01:43:13;13.40;;;6.03;;
53925;SDS011;39836;52.754;6.866;2023-03-23T01:45:40;10.57;;;5.47;;
53925;SDS011;39836;52.754;6.866;2023-03-23T01:50:48;11.00;;;5.53;;
53925;SDS011;39836;52.754;6.866;2023-03-23T01:53:31;10.55;;;4.90;;
53925;SDS011;39836;52.754;6.866;2023-03-23T01:56:03;8.82;;;5.65;;
53925;SDS011;39836;52.754;6.866;2023-03-23T01:58:32;10.55;;;5.97;;
53925;SDS011;39836;52.754;6.866;2023-03-23T02:01:02;10.02;;;5.68;;
53925;SDS011;39836;52.754;6.866;2023-03-23T02:03:31;12.60;;;5.15;;
53925;SDS011;39836;52.754;6.866;2023-03-23T02:06:00;11.77;;;5.82;;
53925;SDS011;39836;52.754;6.866;2023-03-23T02:08:28;10.65;;;6.22;;
53925;SDS011;39836;52.754;6.866;2023-03-23T02:10:57;8.93;;;5.63;;
53925;SDS011;39836;52.754;6.866;2023-03-23T02:13:23;9.93;;;4.80;;
53925;SDS011;39836;52.754;6.866;2023-03-23T02:16:08;10.18;;;5.85;;
53925;SDS011;39836;52.754;6.866;2023-03-23T02:29:26;11.93;;;6.25;;
53925;SDS011;39836;52.754;6.866;2023-03-23T02:32:20;10.10;;;5.78;;
53925;SDS011;39836;52.754;6.866;2023-03-23T02:35:03;9.43;;;5.97;;
53925;SDS011;39836;52.754;6.866;2023-03-23T02:37:36;8.82;;;5.30;;
53925;SDS011;39836;52.754;6.866;2023-03-23T02:40:43;10.55;;;5.43;;
53925;SDS011;39836;52.754;6.866;2023-03-23T02:43:15;10.75;;;5.93;;
53925;SDS011;39836;52.754;6.866;2023-03-23T02:45:44;9.88;;;5.85;;
53925;SDS011;39836;52.754;6.866;2023-03-23T02:48:10;10.88;;;4.72;;
53925;SDS011;39836;52.754;6.866;2023-03-23T02:50:40;11.27;;;5.68;;
53925;SDS011;39836;52.754;6.866;2023-03-23T02:53:10;10.27;;;6.22;;
53925;SDS011;39836;52.754;6.866;2023-03-23T02:55:39;8.57;;;5.60;;
53925;SDS011;39836;52.754;6.866;2023-03-23T02:58:08;9.13;;;5.90;;
53925;SDS011;39836;52.754;6.866;2023-03-23T03:00:35;10.68;;;5.78;;
53925;SDS011;39836;52.754;6.866;2023-03-23T03:03:02;9.32;;;5.82;;
53925;SDS011;39836;52.754;6.866;2023-03-23T03:11:16;9.60;;;5.10;;
53925;SDS011;39836;52.754;6.866;2023-03-23T03:13:52;8.43;;;5.22;;
53925;SDS011;39836;52.754;6.866;2023-03-23T03:19:06;9.75;;;5.10;;
53925;SDS011;39836;52.754;6.866;2023-03-23T03:22:01;8.50;;;4.65;;
53925;SDS011;39836;52.754;6.866;2023-03-23T03:24:27;9.98;;;4.93;;
53925;SDS011;39836;52.754;6.866;2023-03-23T03:26:55;9.60;;;5.18;;
53925;SDS011;39836;52.754;6.866;2023-03-23T03:29:29;7.72;;;4.28;;
53925;SDS011;39836;52.754;6.866;2023-03-23T03:31:58;11.05;;;5.28;;
53925;SDS011;39836;52.754;6.866;2023-03-23T03:34:25;9.38;;;5.78;;
53925;SDS011;39836;52.754;6.866;2023-03-23T03:36:52;8.38;;;4.43;;
53925;SDS011;39836;52.754;6.866;2023-03-23T03:39:20;8.90;;;4.40;;
53925;SDS011;39836;52.754;6.866;2023-03-23T03:41:46;10.20;;;5.15;;
53925;SDS011;39836;52.754;6.866;2023-03-23T03:44:12;6.75;;;4.00;;
53925;SDS011;39836;52.754;6.866;2023-03-23T03:46:39;7.50;;;4.90;;
53925;SDS011;39836;52.754;6.866;2023-03-23T03:49:05;7.15;;;4.90;;
53925;SDS011;39836;52.754;6.866;2023-03-23T03:51:32;10.60;;;4.82;;
53925;SDS011;39836;52.754;6.866;2023-03-23T03:53:59;9.80;;;5.05;;
53925;SDS011;39836;52.754;6.866;2023-03-23T03:56:25;8.85;;;4.97;;
53925;SDS011;39836;52.754;6.866;2023-03-23T03:58:51;6.20;;;4.40;;
53925;SDS011;39836;52.754;6.866;2023-03-23T04:01:18;7.30;;;4.45;;
53925;SDS011;39836;52.754;6.866;2023-03-23T04:03:49;12.20;;;5.47;;
53925;SDS011;39836;52.754;6.866;2023-03-23T04:06:16;7.55;;;4.32;;
53925;SDS011;39836;52.754;6.866;2023-03-23T04:08:42;8.65;;;4.85;;
53925;SDS011;39836;52.754;6.866;2023-03-23T04:11:10;7.18;;;5.00;;
53925;SDS011;39836;52.754;6.866;2023-03-23T04:13:37;9.00;;;5.15;;
53925;SDS011;39836;52.754;6.866;2023-03-23T04:16:03;12.95;;;5.07;;
53925;SDS011;39836;52.754;6.866;2023-03-23T04:18:29;8.18;;;5.47;;
53925;SDS011;39836;52.754;6.866;2023-03-23T04:20:57;8.45;;;5.43;;
53925;SDS011;39836;52.754;6.866;2023-03-23T04:23:25;10.38;;;6.03;;
53925;SDS011;39836;52.754;6.866;2023-03-23T04:25:52;10.27;;;6.10;;
53925;SDS011;39836;52.754;6.866;2023-03-23T04:28:22;10.60;;;5.18;;
53925;SDS011;39836;52.754;6.866;2023-03-23T04:30:49;8.90;;;5.45;;
53925;SDS011;39836;52.754;6.866;2023-03-23T04:33:20;11.15;;;5.50;;
53925;SDS011;39836;52.754;6.866;2023-03-23T04:35:47;8.57;;;5.05;;
53925;SDS011;39836;52.754;6.866;2023-03-23T04:38:14;10.43;;;5.20;;
53925;SDS011;39836;52.754;6.866;2023-03-23T04:40:42;9.18;;;5.78;;
53925;SDS011;39836;52.754;6.866;2023-03-23T04:43:08;10.45;;;4.40;;
53925;SDS011;39836;52.754;6.866;2023-03-23T04:45:37;11.73;;;5.35;;
53925;SDS011;39836;52.754;6.866;2023-03-23T04:48:06;7.43;;;4.60;;
53925;SDS011;39836;52.754;6.866;2023-03-23T04:50:33;9.50;;;5.80;;
53925;SDS011;39836;52.754;6.866;2023-03-23T04:53:00;10.30;;;6.00;;
53925;SDS011;39836;52.754;6.866;2023-03-23T04:55:31;13.13;;;5.10;;
53925;SDS011;39836;52.754;6.866;2023-03-23T04:58:01;14.55;;;5.57;;
53925;SDS011;39836;52.754;6.866;2023-03-23T05:00:31;7.63;;;5.18;;
53925;SDS011;39836;52.754;6.866;2023-03-23T05:02:58;8.00;;;5.35;;
53925;SDS011;39836;52.754;6.866;2023-03-23T05:05:24;8.98;;;4.97;;
53925;SDS011;39836;52.754;6.866;2023-03-23T05:07:52;9.63;;;4.97;;
53925;SDS011;39836;52.754;6.866;2023-03-23T05:10:18;11.68;;;5.05;;
53925;SDS011;39836;52.754;6.866;2023-03-23T05:12:44;8.38;;;5.20;;
53925;SDS011;39836;52.754;6.866;2023-03-23T05:15:11;8.38;;;4.53;;
53925;SDS011;39836;52.754;6.866;2023-03-23T05:17:38;10.90;;;5.00;;
53925;SDS011;39836;52.754;6.866;2023-03-23T05:20:06;8.25;;;5.18;;
53925;SDS011;39836;52.754;6.866;2023-03-23T05:22:36;10.13;;;5.28;;
53925;SDS011;39836;52.754;6.866;2023-03-23T05:25:03;17.55;;;5.72;;
53925;SDS011;39836;52.754;6.866;2023-03-23T05:27:30;9.30;;;5.35;;
53925;SDS011;39836;52.754;6.866;2023-03-23T05:29:57;8.82;;;5.22;;
53925;SDS011;39836;52.754;6.866;2023-03-23T05:32:25;10.25;;;4.60;;
53925;SDS011;39836;52.754;6.866;2023-03-23T05:35:00;9.27;;;5.78;;
53925;SDS011;39836;52.754;6.866;2023-03-23T05:37:28;7.75;;;4.65;;
53925;SDS011;39836;52.754;6.866;2023-03-23T05:39:57;13.90;;;5.25;;
53925;SDS011;39836;52.754;6.866;2023-03-23T05:42:30;9.48;;;4.47;;
53925;SDS011;39836;52.754;6.866;2023-03-23T05:44:57;11.68;;;4.03;;
53925;SDS011;39836;52.754;6.866;2023-03-23T05:47:23;11.43;;;4.13;;
53925;SDS011;39836;52.754;6.866;2023-03-23T05:49:50;10.57;;;4.25;;
53925;SDS011;39836;52.754;6.866;2023-03-23T05:52:17;7.97;;;3.90;;
53925;SDS011;39836;52.754;6.866;2023-03-23T05:54:44;12.07;;;3.42;;
53925;SDS011;39836;52.754;6.866;2023-03-23T05:57:10;9.27;;;3.88;;
53925;SDS011;39836;52.754;6.866;2023-03-23T05:59:36;6.78;;;3.33;;
53925;SDS011;39836;52.754;6.866;2023-03-23T06:02:03;11.02;;;4.35;;
53925;SDS011;39836;52.754;6.866;2023-03-23T06:04:30;16.80;;;5.13;;
53925;SDS011;39836;52.754;6.866;2023-03-23T06:06:59;12.00;;;4.35;;
53925;SDS011;39836;52.754;6.866;2023-03-23T06:09:27;15.57;;;6.00;;
53925;SDS011;39836;52.754;6.866;2023-03-23T06:11:53;10.80;;;4.65;;
53925;SDS011;39836;52.754;6.866;2023-03-23T06:14:18;14.63;;;5.18;;
53925;SDS011;39836;52.754;6.866;2023-03-23T06:16:44;13.13;;;5.38;;
53925;SDS011;39836;52.754;6.866;2023-03-23T06:19:10;13.52;;;5.43;;
53925;SDS011;39836;52.754;6.866;2023-03-23T06:21:36;17.92;;;6.07;;
53925;SDS011;39836;52.754;6.866;2023-03-23T06:24:03;14.73;;;5.22;;
53925;SDS011;39836;52.754;6.866;2023-03-23T06:26:34;14.02;;;5.25;;
53925;SDS011;39836;52.754;6.866;2023-03-23T06:29:01;17.85;;;5.68;;
53925;SDS011;39836;52.754;6.866;2023-03-23T06:31:35;15.32;;;4.90;;
53925;SDS011;39836;52.754;6.866;2023-03-23T06:34:03;9.90;;;4.43;;
53925;SDS011;39836;52.754;6.866;2023-03-23T06:36:29;11.35;;;4.72;;
53925;SDS011;39836;52.754;6.866;2023-03-23T06:38:55;19.38;;;4.55;;
53925;SDS011;39836;52.754;6.866;2023-03-23T06:41:21;14.95;;;4.60;;
53925;SDS011;39836;52.754;6.866;2023-03-23T06:43:47;14.15;;;4.80;;
53925;SDS011;39836;52.754;6.866;2023-03-23T06:46:12;18.08;;;5.13;;
53925;SDS011;39836;52.754;6.866;2023-03-23T06:48:38;16.73;;;5.78;;
53925;SDS011;39836;52.754;6.866;2023-03-23T06:51:04;19.42;;;5.90;;
53925;SDS011;39836;52.754;6.866;2023-03-23T06:53:30;13.90;;;5.15;;
53925;SDS011;39836;52.754;6.866;2023-03-23T06:55:56;15.27;;;5.47;;
53925;SDS011;39836;52.754;6.866;2023-03-23T06:58:22;18.55;;;5.82;;
53925;SDS011;39836;52.754;6.866;2023-03-23T07:00:52;18.73;;;4.65;;
53925;SDS011;39836;52.754;6.866;2023-03-23T07:03:22;19.85;;;5.80;;
53925;SDS011;39836;52.754;6.866;2023-03-23T07:05:48;12.65;;;4.22;;
53925;SDS011;39836;52.754;6.866;2023-03-23T07:08:14;16.42;;;4.88;;
53925;SDS011;39836;52.754;6.866;2023-03-23T07:10:39;17.33;;;5.55;;
53925;SDS011;39836;52.754;6.866;2023-03-23T07:13:06;17.05;;;5.15;;
53925;SDS011;39836;52.754;6.866;2023-03-23T07:15:31;11.70;;;5.13;;
53925;SDS011;39836;52.754;6.866;2023-03-23T07:17:57;19.15;;;5.50;;
53925;SDS011;39836;52.754;6.866;2023-03-23T07:20:23;14.98;;;5.07;;
53925;SDS011;39836;52.754;6.866;2023-03-23T07:22:49;12.95;;;5.95;;
53925;SDS011;39836;52.754;6.866;2023-03-23T07:25:15;19.05;;;6.45;;
53925;SDS011;39836;52.754;6.866;2023-03-23T07:27:41;21.02;;;5.43;;
53925;SDS011;39836;52.754;6.866;2023-03-23T07:30:09;16.25;;;5.00;;
53925;SDS011;39836;52.754;6.866;2023-03-23T07:32:35;16.20;;;5.00;;
53925;SDS011;39836;52.754;6.866;2023-03-23T07:35:01;14.88;;;4.55;;
53925;SDS011;39836;52.754;6.866;2023-03-23T07:37:28;18.77;;;5.80;;
53925;SDS011;39836;52.754;6.866;2023-03-23T07:39:54;13.98;;;4.75;;
53925;SDS011;39836;52.754;6.866;2023-03-23T07:42:20;19.30;;;4.35;;
53925;SDS011;39836;52.754;6.866;2023-03-23T07:44:46;12.65;;;4.40;;
53925;SDS011;39836;52.754;6.866;2023-03-23T07:47:12;15.50;;;4.28;;
53925;SDS011;39836;52.754;6.866;2023-03-23T07:49:38;12.68;;;4.40;;
53925;SDS011;39836;52.754;6.866;2023-03-23T07:52:04;14.52;;;4.25;;
53925;SDS011;39836;52.754;6.866;2023-03-23T07:54:30;13.07;;;3.63;;
53925;SDS011;39836;52.754;6.866;2023-03-23T07:56:55;13.93;;;3.78;;
53925;SDS011;39836;52.754;6.866;2023-03-23T07:59:21;26.80;;;4.32;;
53925;SDS011;39836;52.754;6.866;2023-03-23T08:01:47;15.60;;;4.35;;
53925;SDS011;39836;52.754;6.866;2023-03-23T08:04:13;15.60;;;3.80;;
53925;SDS011;39836;52.754;6.866;2023-03-23T08:06:40;22.00;;;4.90;;
53925;SDS011;39836;52.754;6.866;2023-03-23T08:09:07;19.48;;;4.85;;
53925;SDS011;39836;52.754;6.866;2023-03-23T08:11:38;25.50;;;4.95;;
53925;SDS011;39836;52.754;6.866;2023-03-23T08:14:04;21.42;;;5.43;;
53925;SDS011;39836;52.754;6.866;2023-03-23T08:16:30;17.05;;;5.13;;
53925;SDS011;39836;52.754;6.866;2023-03-23T08:18:57;19.92;;;5.30;;
53925;SDS011;39836;52.754;6.866;2023-03-23T08:21:23;14.25;;;5.22;;
53925;SDS011;39836;52.754;6.866;2023-03-23T08:23:49;15.95;;;5.53;;
53925;SDS011;39836;52.754;6.866;2023-03-23T08:26:15;15.73;;;5.18;;
53925;SDS011;39836;52.754;6.866;2023-03-23T08:28:42;19.98;;;5.05;;
53925;SDS011;39836;52.754;6.866;2023-03-23T08:31:13;18.73;;;5.47;;
53925;SDS011;39836;52.754;6.866;2023-03-23T08:33:39;21.33;;;6.07;;
53925;SDS011;39836;52.754;6.866;2023-03-23T08:36:06;17.52;;;5.00;;
53925;SDS011;39836;52.754;6.866;2023-03-23T08:38:33;18.08;;;5.30;;
53925;SDS011;39836;52.754;6.866;2023-03-23T08:41:00;19.92;;;5.28;;
53925;SDS011;39836;52.754;6.866;2023-03-23T08:43:29;17.48;;;5.82;;
53925;SDS011;39836;52.754;6.866;2023-03-23T08:45:59;18.88;;;4.75;;
53925;SDS011;39836;52.754;6.866;2023-03-23T08:48:25;21.13;;;5.50;;
53925;SDS011;39836;52.754;6.866;2023-03-23T08:50:51;18.23;;;4.72;;
53925;SDS011;39836;52.754;6.866;2023-03-23T08:53:20;17.73;;;5.53;;
53925;SDS011;39836;52.754;6.866;2023-03-23T08:55:46;17.27;;;5.20;;
53925;SDS011;39836;52.754;6.866;2023-03-23T08:58:13;14.27;;;5.30;;
53925;SDS011;39836;52.754;6.866;2023-03-23T09:00:38;19.58;;;6.32;;
53925;SDS011;39836;52.754;6.866;2023-03-23T09:03:05;17.67;;;4.88;;
53925;SDS011;39836;52.754;6.866;2023-03-23T09:05:30;21.77;;;6.53;;
53925;SDS011;39836;52.754;6.866;2023-03-23T09:07:56;21.85;;;5.35;;
53925;SDS011;39836;52.754;6.866;2023-03-23T09:10:26;19.02;;;5.07;;
53925;SDS011;39836;52.754;6.866;2023-03-23T09:12:53;15.57;;;5.75;;
53925;SDS011;39836;52.754;6.866;2023-03-23T09:15:20;20.40;;;5.80;;
53925;SDS011;39836;52.754;6.866;2023-03-23T09:17:47;18.40;;;5.32;;
53925;SDS011;39836;52.754;6.866;2023-03-23T09:20:16;20.67;;;5.38;;
53925;SDS011;39836;52.754;6.866;2023-03-23T09:22:46;21.73;;;5.90;;
53925;SDS011;39836;52.754;6.866;2023-03-23T09:25:14;17.35;;;5.97;;
53925;SDS011;39836;52.754;6.866;2023-03-23T09:27:44;20.40;;;6.55;;
53925;SDS011;39836;52.754;6.866;2023-03-23T09:30:12;15.75;;;5.53;;
53925;SDS011;39836;52.754;6.866;2023-03-23T09:32:39;12.57;;;5.03;;
53925;SDS011;39836;52.754;6.866;2023-03-23T09:35:07;21.85;;;6.45;;
53925;SDS011;39836;52.754;6.866;2023-03-23T09:37:34;18.65;;;7.07;;
53925;SDS011;39836;52.754;6.866;2023-03-23T09:40:01;20.00;;;5.90;;
53925;SDS011;39836;52.754;6.866;2023-03-23T09:42:31;17.23;;;5.75;;
53925;SDS011;39836;52.754;6.866;2023-03-23T09:48:33;14.52;;;4.30;;
53925;SDS011;39836;52.754;6.866;2023-03-23T09:57:26;13.73;;;4.63;;
53925;SDS011;39836;52.754;6.866;2023-03-23T10:03:20;10.35;;;4.03;;
53925;SDS011;39836;52.754;6.866;2023-03-23T10:05:52;8.43;;;3.63;;
53925;SDS011;39836;52.754;6.866;2023-03-23T10:08:21;12.65;;;3.83;;
53925;SDS011;39836;52.754;6.866;2023-03-23T10:13:18;12.02;;;3.47;;
53925;SDS011;39836;52.754;6.866;2023-03-23T10:15:48;14.80;;;3.22;;
53925;SDS011;39836;52.754;6.866;2023-03-23T10:21:36;9.35;;;2.90;;
53925;SDS011;39836;52.754;6.866;2023-03-23T10:24:10;8.65;;;3.03;;
53925;SDS011;39836;52.754;6.866;2023-03-23T10:29:36;10.00;;;3.05;;
53925;SDS011;39836;52.754;6.866;2023-03-23T10:32:12;12.18;;;3.28;;
53925;SDS011;39836;52.754;6.866;2023-03-23T10:39:56;8.63;;;2.92;;
53925;SDS011;39836;52.754;6.866;2023-03-23T10:42:28;12.07;;;3.25;;
53925;SDS011;39836;52.754;6.866;2023-03-23T10:45:32;13.82;;;3.42;;
53925;SDS011;39836;52.754;6.866;2023-03-23T10:48:14;11.65;;;3.47;;
53925;SDS011;39836;52.754;6.866;2023-03-23T10:50:45;11.90;;;3.45;;
53925;SDS011;39836;52.754;6.866;2023-03-23T10:53:21;11.07;;;3.03;;
53925;SDS011;39836;52.754;6.866;2023-03-23T10:55:51;12.60;;;2.70;;
53925;SDS011;39836;52.754;6.866;2023-03-23T10:58:28;9.13;;;3.05;;
53925;SDS011;39836;52.754;6.866;2023-03-23T11:01:00;10.43;;;3.00;;
53925;SDS011;39836;52.754;6.866;2023-03-23T11:03:38;15.13;;;3.83;;
53925;SDS011;39836;52.754;6.866;2023-03-23T11:06:24;10.02;;;3.10;;
53925;SDS011;39836;52.754;6.866;2023-03-23T11:08:54;10.98;;;3.15;;
53925;SDS011;39836;52.754;6.866;2023-03-23T11:11:37;11.20;;;2.97;;
53925;SDS011;39836;52.754;6.866;2023-03-23T11:14:18;11.60;;;3.10;;
53925;SDS011;39836;52.754;6.866;2023-03-23T11:16:51;12.40;;;3.33;;
53925;SDS011;39836;52.754;6.866;2023-03-23T11:19:27;10.77;;;3.08;;
53925;SDS011;39836;52.754;6.866;2023-03-23T11:24:42;7.47;;;3.42;;
53925;SDS011;39836;52.754;6.866;2023-03-23T11:27:10;11.30;;;3.33;;
53925;SDS011;39836;52.754;6.866;2023-03-23T11:29:44;11.85;;;3.50;;
53925;SDS011;39836;52.754;6.866;2023-03-23T11:32:19;12.68;;;4.60;;
53925;SDS011;39836;52.754;6.866;2023-03-23T11:34:52;13.73;;;3.25;;
53925;SDS011;39836;52.754;6.866;2023-03-23T11:39:53;13.05;;;4.13;;
53925;SDS011;39836;52.754;6.866;2023-03-23T11:42:25;10.43;;;2.88;;
53925;SDS011;39836;52.754;6.866;2023-03-23T11:45:17;8.98;;;2.90;;
53925;SDS011;39836;52.754;6.866;2023-03-23T11:48:07;15.00;;;3.20;;
53925;SDS011;39836;52.754;6.866;2023-03-23T11:53:42;15.18;;;2.95;;
53925;SDS011;39836;52.754;6.866;2023-03-23T11:56:25;10.27;;;2.78;;
53925;SDS011;39836;52.754;6.866;2023-03-23T11:59:02;8.68;;;3.17;;
53925;SDS011;39836;52.754;6.866;2023-03-23T12:02:18;9.80;;;3.20;;
53925;SDS011;39836;52.754;6.866;2023-03-23T12:04:46;12.32;;;3.08;;
53925;SDS011;39836;52.754;6.866;2023-03-23T12:07:44;10.55;;;2.80;;
53925;SDS011;39836;52.754;6.866;2023-03-23T12:29:40;11.57;;;3.72;;
53925;SDS011;39836;52.754;6.866;2023-03-23T12:40:43;16.70;;;2.85;;
53925;SDS011;39836;52.754;6.866;2023-03-23T12:48:22;11.02;;;2.75;;
53925;SDS011;39836;52.754;6.866;2023-03-23T12:53:27;20.77;;;3.50;;
53925;SDS011;39836;52.754;6.866;2023-03-23T12:58:50;14.35;;;3.22;;
53925;SDS011;39836;52.754;6.866;2023-03-23T13:01:42;11.85;;;3.40;;
53925;SDS011;39836;52.754;6.866;2023-03-23T13:04:12;10.70;;;2.92;;
53925;SDS011;39836;52.754;6.866;2023-03-23T13:06:46;10.82;;;2.80;;
53925;SDS011;39836;52.754;6.866;2023-03-23T13:12:03;8.25;;;2.15;;
53925;SDS011;39836;52.754;6.866;2023-03-23T13:25:52;10.93;;;3.08;;
53925;SDS011;39836;52.754;6.866;2023-03-23T13:28:25;11.02;;;2.65;;
53925;SDS011;39836;52.754;6.866;2023-03-23T13:30:57;11.38;;;3.03;;
53925;SDS011;39836;52.754;6.866;2023-03-23T13:33:25;12.07;;;2.42;;
53925;SDS011;39836;52.754;6.866;2023-03-23T13:35:55;9.55;;;2.20;;
53925;SDS011;39836;52.754;6.866;2023-03-23T13:38:25;9.20;;;2.40;;
53925;SDS011;39836;52.754;6.866;2023-03-23T13:40:53;10.38;;;2.20;;
53925;SDS011;39836;52.754;6.866;2023-03-23T13:43:28;16.10;;;3.03;;
53925;SDS011;39836;52.754;6.866;2023-03-23T13:46:32;11.00;;;2.70;;
53925;SDS011;39836;52.754;6.866;2023-03-23T13:49:13;12.85;;;2.60;;
53925;SDS011;39836;52.754;6.866;2023-03-23T13:59:47;10.25;;;2.85;;
53925;SDS011;39836;52.754;6.866;2023-03-23T14:02:26;12.73;;;3.08;;
53925;SDS011;39836;52.754;6.866;2023-03-23T14:04:55;14.05;;;2.90;;
53925;SDS011;39836;52.754;6.866;2023-03-23T14:07:22;18.83;;;3.72;;
53925;SDS011;39836;52.754;6.866;2023-03-23T14:09:50;13.13;;;2.88;;
53925;SDS011;39836;52.754;6.866;2023-03-23T14:12:17;9.40;;;2.38;;
53925;SDS011;39836;52.754;6.866;2023-03-23T14:14:47;7.82;;;2.75;;
53925;SDS011;39836;52.754;6.866;2023-03-23T14:17:24;9.50;;;2.35;;
53925;SDS011;39836;52.754;6.866;2023-03-23T14:19:52;11.68;;;3.30;;
53925;SDS011;39836;52.754;6.866;2023-03-23T14:24:51;15.50;;;2.88;;
53925;SDS011;39836;52.754;6.866;2023-03-23T14:27:23;10.63;;;2.83;;
53925;SDS011;39836;52.754;6.866;2023-03-23T14:29:59;10.95;;;2.70;;
53925;SDS011;39836;52.754;6.866;2023-03-23T14:32:27;11.95;;;3.15;;
53925;SDS011;39836;52.754;6.866;2023-03-23T14:34:56;10.70;;;2.30;;
53925;SDS011;39836;52.754;6.866;2023-03-23T14:37:22;8.20;;;2.30;;
53925;SDS011;39836;52.754;6.866;2023-03-23T14:39:49;10.70;;;2.60;;
53925;SDS011;39836;52.754;6.866;2023-03-23T14:42:19;13.57;;;2.85;;
53925;SDS011;39836;52.754;6.866;2023-03-23T14:44:50;13.02;;;3.08;;
53925;SDS011;39836;52.754;6.866;2023-03-23T14:47:21;10.98;;;2.38;;
53925;SDS011;39836;52.754;6.866;2023-03-23T14:52:58;13.77;;;3.35;;
53925;SDS011;39836;52.754;6.866;2023-03-23T14:55:25;10.52;;;2.83;;
53925;SDS011;39836;52.754;6.866;2023-03-23T14:57:53;11.43;;;2.42;;
53925;SDS011;39836;52.754;6.866;2023-03-23T15:00:24;23.77;;;3.00;;
53925;SDS011;39836;52.754;6.866;2023-03-23T15:02:58;13.18;;;2.80;;
53925;SDS011;39836;52.754;6.866;2023-03-23T15:05:33;19.35;;;3.83;;
53925;SDS011;39836;52.754;6.866;2023-03-23T15:08:06;15.82;;;2.95;;
53925;SDS011;39836;52.754;6.866;2023-03-23T15:10:37;12.07;;;2.88;;
53925;SDS011;39836;52.754;6.866;2023-03-23T15:13:04;10.15;;;2.55;;
53925;SDS011;39836;52.754;6.866;2023-03-23T15:15:34;16.38;;;4.22;;
53925;SDS011;39836;52.754;6.866;2023-03-23T15:18:01;11.38;;;3.30;;
53925;SDS011;39836;52.754;6.866;2023-03-23T15:20:32;14.90;;;3.35;;
53925;SDS011;39836;52.754;6.866;2023-03-23T15:23:17;15.93;;;4.38;;
53925;SDS011;39836;52.754;6.866;2023-03-23T15:25:51;10.80;;;2.85;;
53925;SDS011;39836;52.754;6.866;2023-03-23T15:30:50;12.75;;;3.08;;
53925;SDS011;39836;52.754;6.866;2023-03-23T15:33:18;9.80;;;3.08;;
53925;SDS011;39836;52.754;6.866;2023-03-23T15:35:51;13.90;;;3.90;;
53925;SDS011;39836;52.754;6.866;2023-03-23T15:38:25;9.45;;;2.75;;
53925;SDS011;39836;52.754;6.866;2023-03-23T15:40:55;14.20;;;3.53;;
53925;SDS011;39836;52.754;6.866;2023-03-23T15:43:27;14.40;;;3.70;;
53925;SDS011;39836;52.754;6.866;2023-03-23T15:45:57;10.90;;;3.10;;
53925;SDS011;39836;52.754;6.866;2023-03-23T15:48:48;14.50;;;3.50;;
53925;SDS011;39836;52.754;6.866;2023-03-23T15:51:15;13.52;;;3.20;;
53925;SDS011;39836;52.754;6.866;2023-03-23T15:53:42;14.95;;;3.92;;
53925;SDS011;39836;52.754;6.866;2023-03-23T15:56:10;14.60;;;3.72;;
53925;SDS011;39836;52.754;6.866;2023-03-23T15:58:37;11.48;;;3.60;;
53925;SDS011;39836;52.754;6.866;2023-03-23T16:01:09;12.27;;;3.03;;
53925;SDS011;39836;52.754;6.866;2023-03-23T16:03:41;16.10;;;3.92;;
53925;SDS011;39836;52.754;6.866;2023-03-23T16:06:13;12.23;;;3.42;;
53925;SDS011;39836;52.754;6.866;2023-03-23T16:08:40;8.73;;;2.72;;
53925;SDS011;39836;52.754;6.866;2023-03-23T16:11:08;10.23;;;3.25;;
53925;SDS011;39836;52.754;6.866;2023-03-23T16:13:36;13.30;;;3.80;;
53925;SDS011;39836;52.754;6.866;2023-03-23T16:16:01;11.45;;;3.80;;
53925;SDS011;39836;52.754;6.866;2023-03-23T16:18:29;9.93;;;3.22;;
53925;SDS011;39836;52.754;6.866;2023-03-23T16:20:55;12.60;;;3.85;;
53925;SDS011;39836;52.754;6.866;2023-03-23T16:23:21;10.65;;;2.80;;
53925;SDS011;39836;52.754;6.866;2023-03-23T16:25:47;13.13;;;3.03;;
53925;SDS011;39836;52.754;6.866;2023-03-23T16:28:14;17.08;;;3.65;;
53925;SDS011;39836;52.754;6.866;2023-03-23T16:30:41;10.38;;;3.15;;
53925;SDS011;39836;52.754;6.866;2023-03-23T16:33:08;12.23;;;3.00;;
53925;SDS011;39836;52.754;6.866;2023-03-23T16:35:35;18.27;;;3.85;;
53925;SDS011;39836;52.754;6.866;2023-03-23T16:38:00;10.57;;;3.05;;
53925;SDS011;39836;52.754;6.866;2023-03-23T16:40:26;11.35;;;3.50;;
53925;SDS011;39836;52.754;6.866;2023-03-23T16:42:52;6.85;;;3.58;;
53925;SDS011;39836;52.754;6.866;2023-03-23T16:45:19;8.52;;;2.78;;
53925;SDS011;39836;52.754;6.866;2023-03-23T16:47:44;13.80;;;3.42;;
53925;SDS011;39836;52.754;6.866;2023-03-23T16:50:11;9.05;;;3.22;;
53925;SDS011;39836;52.754;6.866;2023-03-23T16:52:40;7.78;;;2.60;;
53925;SDS011;39836;52.754;6.866;2023-03-23T16:55:07;8.95;;;2.80;;
53925;SDS011;39836;52.754;6.866;2023-03-23T16:57:35;8.10;;;2.60;;
53925;SDS011;39836;52.754;6.866;2023-03-23T17:00:03;8.18;;;2.63;;